createdAt,value
2022-09-26T00:01:05.446Z,11.10
2022-09-26T00:03:33.184Z,11.10
2022-09-26T00:06:01.569Z,11.10
2022-09-26T00:08:29.512Z,11.10
2022-09-26T00:10:58.825Z,11.10
2022-09-26T00:13:26.684Z,11.00
2022-09-26T00:15:55.868Z,11.00
2022-09-26T00:18:24.092Z,10.90
2022-09-26T00:20:52.244Z,10.90
2022-09-26T00:23:20.112Z,11.00
2022-09-26T00:25:48.056Z,10.90
2022-09-26T00:28:16.027Z,10.90
2022-09-26T00:30:44.605Z,10.90
2022-09-26T00:33:13.940Z,11.00
2022-09-26T00:35:42.018Z,11.00
2022-09-26T00:38:09.966Z,11.00
2022-09-26T00:40:37.649Z,11.00
2022-09-26T00:43:05.338Z,10.90
2022-09-26T00:45:33.245Z,10.90
2022-09-26T00:48:02.103Z,10.90
2022-09-26T00:50:33.272Z,10.90
2022-09-26T00:53:03.604Z,11.00
2022-09-26T00:55:36.155Z,11.00
2022-09-26T00:58:05.399Z,10.90
2022-09-26T01:00:34.160Z,10.90
2022-09-26T01:03:02.142Z,10.90
2022-09-26T01:05:32.227Z,10.90
2022-09-26T01:08:00.356Z,10.90
2022-09-26T01:10:28.588Z,10.90
2022-09-26T01:12:56.824Z,11.00
2022-09-26T01:15:24.813Z,10.90
2022-09-26T01:17:52.545Z,10.90
2022-09-26T01:20:24.918Z,10.90
2022-09-26T01:23:07.476Z,10.80
2022-09-26T01:25:46.037Z,10.80
2022-09-26T01:28:24.947Z,10.90
2022-09-26T01:30:57.302Z,10.90
2022-09-26T01:33:40.088Z,10.80
2022-09-26T01:36:28.867Z,10.80
2022-09-26T01:39:02.509Z,10.70
2022-09-26T01:41:37.611Z,10.50
2022-09-26T01:44:09.376Z,10.60
2022-09-26T01:46:45.628Z,10.40
2022-09-26T01:49:14.841Z,10.40
2022-09-26T01:51:47.150Z,10.30
2022-09-26T01:54:16.415Z,10.30
2022-09-26T01:56:44.447Z,10.30
2022-09-26T01:59:16.043Z,10.40
2022-09-26T02:01:46.059Z,10.30
2022-09-26T02:04:15.530Z,10.30
2022-09-26T02:06:45.827Z,10.20
2022-09-26T02:09:16.369Z,10.20
2022-09-26T02:11:46.361Z,10.20
2022-09-26T02:14:16.209Z,10.30
2022-09-26T02:16:47.673Z,10.20
2022-09-26T02:19:17.716Z,10.20
2022-09-26T02:21:45.379Z,10.30
2022-09-26T02:24:13.358Z,10.30
2022-09-26T02:26:42.229Z,10.30
2022-09-26T02:29:10.737Z,10.40
2022-09-26T02:31:41.058Z,10.50
2022-09-26T02:34:10.111Z,10.50
2022-09-26T02:36:38.250Z,10.50
2022-09-26T02:39:08.105Z,10.40
2022-09-26T02:41:41.170Z,10.30
2022-09-26T02:44:22.723Z,10.20
2022-09-26T02:47:08.275Z,10.30
2022-09-26T02:49:45.275Z,10.40
2022-09-26T02:52:18.343Z,10.40
2022-09-26T02:54:49.958Z,10.50
2022-09-26T02:57:24.682Z,10.50
2022-09-26T02:59:56.479Z,10.40
2022-09-26T03:02:28.236Z,10.40
2022-09-26T03:05:01.575Z,10.30
2022-09-26T03:07:31.426Z,10.30
2022-09-26T03:10:01.531Z,10.20
2022-09-26T03:12:31.383Z,10.20
2022-09-26T03:15:00.072Z,10.20
2022-09-26T03:17:29.052Z,10.20
2022-09-26T03:20:00.129Z,10.30
2022-09-26T03:22:27.888Z,10.20
2022-09-26T03:24:59.183Z,10.10
2022-09-26T03:27:27.065Z,10.10
2022-09-26T03:29:54.728Z,10.10
2022-09-26T03:32:22.678Z,10.20
2022-09-26T03:34:51.639Z,10.20
2022-09-26T03:37:20.679Z,10.20
2022-09-26T03:39:48.596Z,10.30
2022-09-26T03:42:16.674Z,10.40
2022-09-26T03:44:44.706Z,10.50
2022-09-26T03:47:12.698Z,10.50
2022-09-26T03:49:40.352Z,10.60
2022-09-26T03:52:10.617Z,10.60
2022-09-26T03:54:39.737Z,10.60
2022-09-26T03:57:07.425Z,10.70
2022-09-26T03:59:35.084Z,10.70
2022-09-26T04:02:03.436Z,10.70
2022-09-26T04:04:32.137Z,10.80
2022-09-26T04:06:59.835Z,10.80
2022-09-26T04:09:27.547Z,10.90
2022-09-26T04:11:56.564Z,10.90
2022-09-26T04:14:24.210Z,10.90
2022-09-26T04:16:51.922Z,11.00
2022-09-26T04:19:19.658Z,11.00
2022-09-26T04:21:47.323Z,11.00
2022-09-26T04:24:15.893Z,11.10
2022-09-26T04:26:44.056Z,11.10
2022-09-26T04:29:13.255Z,11.20
2022-09-26T04:31:41.033Z,11.10
2022-09-26T04:34:11.195Z,11.10
2022-09-26T04:36:39.285Z,11.10
2022-09-26T04:39:07.097Z,11.00
2022-09-26T04:41:34.755Z,10.90
2022-09-26T04:44:03.192Z,10.80
2022-09-26T04:46:32.355Z,10.80
2022-09-26T04:49:01.018Z,10.80
2022-09-26T04:51:29.832Z,10.80
2022-09-26T04:53:57.512Z,10.70
2022-09-26T04:56:25.977Z,10.70
2022-09-26T04:58:56.142Z,10.60
2022-09-26T05:01:24.330Z,10.60
2022-09-26T05:03:55.647Z,10.50
2022-09-26T05:06:23.395Z,10.60
2022-09-26T05:08:51.088Z,10.60
2022-09-26T05:11:19.687Z,10.60
2022-09-26T05:13:52.537Z,10.60
2022-09-26T05:16:21.270Z,10.50
2022-09-26T05:18:50.243Z,10.50
2022-09-26T05:21:19.401Z,10.50
2022-09-26T05:24:04.880Z,10.60
2022-09-26T05:26:38.935Z,10.80
2022-09-26T05:29:16.830Z,10.80
2022-09-26T05:31:44.687Z,10.90
2022-09-26T05:34:18.401Z,11.00
2022-09-26T05:36:48.736Z,11.10
2022-09-26T05:39:33.287Z,11.10
2022-09-26T05:42:01.031Z,11.10
2022-09-26T05:44:30.048Z,11.10
2022-09-26T05:46:57.956Z,11.10
2022-09-26T05:49:25.947Z,11.00
2022-09-26T05:51:55.032Z,10.90
2022-09-26T05:54:22.811Z,10.90
2022-09-26T05:56:50.468Z,10.80
2022-09-26T05:59:18.792Z,10.90
2022-09-26T06:01:47.287Z,10.90
2022-09-26T06:04:14.990Z,10.90
2022-09-26T06:06:44.179Z,10.70
2022-09-26T06:09:13.214Z,10.80
2022-09-26T06:11:40.873Z,10.80
2022-09-26T06:14:09.929Z,10.80
2022-09-26T06:16:37.700Z,10.70
2022-09-26T06:19:05.471Z,10.50
2022-09-26T06:21:33.986Z,10.50
2022-09-26T06:24:01.875Z,10.30
2022-09-26T06:26:30.941Z,10.30
2022-09-26T06:29:00.189Z,10.20
2022-09-26T06:31:28.725Z,10.20
2022-09-26T06:33:56.720Z,10.20
2022-09-26T06:36:25.049Z,10.40
2022-09-26T06:38:52.881Z,10.50
2022-09-26T06:41:20.661Z,10.50
2022-09-26T06:43:49.917Z,10.50
2022-09-26T06:46:17.959Z,10.70
2022-09-26T06:48:45.643Z,10.90
2022-09-26T06:51:14.251Z,11.00
2022-09-26T06:53:42.564Z,11.00
2022-09-26T06:56:10.928Z,10.90
2022-09-26T06:58:39.186Z,11.00
2022-09-26T07:01:08.644Z,11.10
2022-09-26T07:03:38.610Z,11.20
2022-09-26T07:06:09.380Z,11.20
2022-09-26T07:09:01.043Z,11.10
2022-09-26T07:11:38.354Z,11.10
2022-09-26T07:14:17.183Z,11.10
2022-09-26T07:16:46.242Z,11.20
2022-09-26T07:19:14.042Z,11.30
2022-09-26T07:21:41.842Z,11.20
2022-09-26T07:24:13.938Z,11.30
2022-09-26T07:26:41.778Z,11.50
2022-09-26T07:29:09.442Z,11.60
2022-09-26T07:31:37.958Z,11.70
2022-09-26T07:34:08.449Z,11.80
2022-09-26T07:36:36.166Z,12.00
2022-09-26T07:39:03.888Z,12.20
2022-09-26T07:41:31.624Z,12.40
2022-09-26T07:47:04.967Z,12.40
2022-09-26T07:49:51.716Z,12.40
2022-09-26T07:52:22.148Z,12.50
2022-09-26T07:54:49.825Z,12.50
2022-09-26T07:57:19.392Z,12.50
2022-09-26T07:59:49.677Z,12.60
2022-09-26T08:02:23.310Z,12.70
2022-09-26T08:04:58.811Z,12.80
2022-09-26T08:07:28.497Z,12.90
2022-09-26T08:09:56.234Z,13.00
2022-09-26T08:12:23.962Z,13.10
2022-09-26T08:14:52.875Z,13.20
2022-09-26T08:17:20.957Z,13.30
2022-09-26T08:19:48.875Z,13.40
2022-09-26T08:22:17.910Z,13.40
2022-09-26T08:24:50.344Z,13.30
2022-09-26T08:27:18.139Z,13.30
2022-09-26T08:29:49.255Z,13.10
2022-09-26T08:32:17.359Z,13.10
2022-09-26T08:34:45.255Z,13.30
2022-09-26T08:37:13.011Z,13.40
2022-09-26T08:39:42.011Z,13.60
2022-09-26T08:42:19.318Z,13.80
2022-09-26T08:44:56.853Z,13.90
2022-09-26T08:47:30.271Z,13.70
2022-09-26T08:50:12.327Z,13.30
2022-09-26T08:52:41.449Z,13.50
2022-09-26T08:55:14.373Z,13.60
2022-09-26T08:57:43.262Z,13.90
2022-09-26T09:00:20.104Z,13.90
2022-09-26T09:02:59.068Z,13.80
2022-09-26T09:05:28.255Z,13.80
2022-09-26T09:07:57.591Z,13.70
2022-09-26T09:10:30.349Z,13.80
2022-09-26T09:13:01.794Z,13.80
2022-09-26T09:15:35.090Z,13.90
2022-09-26T09:18:13.848Z,14.10
2022-09-26T09:20:47.731Z,14.40
2022-09-26T09:23:24.028Z,14.50
2022-09-26T09:27:52.394Z,14.50
2022-09-26T09:29:01.695Z,14.20
2022-09-26T09:31:31.125Z,14.20
2022-09-26T09:34:01.227Z,14.20
2022-09-26T09:36:33.048Z,14.00
2022-09-26T09:39:03.815Z,14.00
2022-09-26T09:41:36.417Z,13.90
2022-09-26T09:44:06.210Z,14.00
2022-09-26T09:46:38.725Z,14.10
2022-09-26T09:49:15.766Z,14.10
2022-09-26T09:51:48.166Z,14.30
2022-09-26T09:54:24.911Z,14.60
2022-09-26T09:57:03.021Z,14.90
2022-09-26T09:59:41.728Z,15.00
2022-09-26T10:02:14.624Z,15.50
2022-09-26T10:04:43.916Z,16.00
2022-09-26T10:07:11.659Z,16.40
2022-09-26T10:09:40.862Z,16.30
2022-09-26T10:12:14.039Z,16.30
2022-09-26T10:14:43.878Z,16.20
2022-09-26T10:17:20.599Z,16.20
2022-09-26T10:19:48.580Z,15.90
2022-09-26T10:22:19.078Z,15.50
2022-09-26T10:24:47.408Z,15.50
2022-09-26T10:27:18.368Z,15.60
2022-09-26T10:29:47.196Z,15.60
2022-09-26T10:32:14.951Z,15.60
2022-09-26T10:34:42.631Z,15.60
2022-09-26T10:37:21.195Z,15.70
2022-09-26T10:40:10.415Z,15.70
2022-09-26T10:42:39.528Z,15.90
2022-09-26T10:45:12.156Z,16.10
2022-09-26T10:47:40.588Z,16.10
2022-09-26T10:50:09.735Z,16.00
2022-09-26T10:52:40.389Z,16.10
2022-09-26T10:55:10.156Z,16.00
2022-09-26T10:57:40.967Z,15.90
2022-09-26T11:00:09.027Z,15.80
2022-09-26T11:02:37.618Z,15.50
2022-09-26T11:05:23.847Z,15.40
2022-09-26T11:07:52.601Z,15.50
2022-09-26T11:10:24.786Z,15.40
2022-09-26T11:12:57.493Z,15.20
2022-09-26T11:15:25.245Z,15.10
2022-09-26T11:17:53.917Z,15.00
2022-09-26T11:20:27.162Z,14.80
2022-09-26T11:23:00.490Z,14.80
2022-09-26T11:25:30.025Z,14.60
2022-09-26T11:28:07.710Z,14.60
2022-09-26T11:30:37.802Z,14.70
2022-09-26T11:33:10.175Z,14.80
2022-09-26T11:35:44.226Z,14.90
2022-09-26T11:38:18.848Z,15.00
2022-09-26T11:40:53.857Z,15.20
2022-09-26T11:43:29.981Z,15.50
2022-09-26T11:46:05.175Z,15.60
2022-09-26T11:48:50.444Z,15.80
2022-09-26T11:51:22.756Z,15.90
2022-09-26T11:53:55.669Z,16.00
2022-09-26T11:56:38.687Z,16.00
2022-09-26T11:59:17.067Z,16.00
2022-09-26T12:01:48.051Z,16.10
2022-09-26T12:04:32.793Z,16.10
2022-09-26T12:07:05.614Z,16.00
2022-09-26T12:09:44.926Z,16.00
2022-09-26T12:12:16.809Z,15.90
2022-09-26T12:14:53.802Z,15.90
2022-09-26T12:17:25.373Z,15.90
2022-09-26T12:19:58.336Z,16.00
2022-09-26T12:22:31.683Z,16.00
2022-09-26T12:25:04.827Z,16.10
2022-09-26T12:27:35.919Z,16.10
2022-09-26T12:30:10.137Z,16.20
2022-09-26T12:32:52.612Z,16.10
2022-09-26T12:35:37.945Z,16.00
2022-09-26T12:38:24.951Z,16.00
2022-09-26T12:40:58.010Z,16.10
2022-09-26T12:43:44.765Z,15.90
2022-09-26T12:46:27.476Z,15.70
2022-09-26T12:49:07.596Z,15.40
2022-09-26T12:51:41.925Z,15.10
2022-09-26T12:54:25.254Z,14.90
2022-09-26T12:56:54.638Z,14.80
2022-09-26T12:59:36.459Z,14.70
2022-09-26T13:02:17.487Z,14.60
2022-09-26T13:04:53.654Z,14.40
2022-09-26T13:07:31.980Z,14.30
2022-09-26T13:10:11.548Z,14.30
2022-09-26T13:13:04.192Z,14.50
2022-09-26T13:15:35.372Z,14.70
2022-09-26T13:18:06.635Z,14.90
2022-09-26T13:20:40.745Z,14.80
2022-09-26T13:23:11.700Z,14.90
2022-09-26T13:25:49.346Z,14.90
2022-09-26T13:28:19.705Z,14.90
2022-09-26T13:30:49.970Z,14.90
2022-09-26T13:33:20.986Z,14.80
2022-09-26T13:35:52.244Z,14.80
2022-09-26T13:38:30.299Z,14.80
2022-09-26T13:41:01.923Z,14.80
2022-09-26T13:43:43.413Z,14.80
2022-09-26T13:46:15.996Z,14.80
2022-09-26T13:48:49.955Z,14.80
2022-09-26T13:51:22.309Z,14.70
2022-09-26T13:53:57.579Z,14.70
2022-09-26T13:56:30.318Z,14.60
2022-09-26T13:59:05.166Z,14.60
2022-09-26T14:01:34.261Z,14.60
2022-09-26T14:04:17.512Z,14.60
2022-09-26T14:07:00.093Z,14.50
2022-09-26T14:09:40.525Z,14.50
2022-09-26T14:12:21.923Z,14.50
2022-09-26T14:15:10.641Z,14.40
2022-09-26T14:17:53.432Z,14.30
2022-09-26T14:20:23.972Z,14.30
2022-09-26T14:22:52.735Z,14.30
2022-09-26T14:25:44.614Z,14.40
2022-09-26T14:28:21.893Z,14.50
2022-09-26T14:31:08.376Z,14.50
2022-09-26T14:33:36.096Z,14.50
2022-09-26T14:36:24.593Z,14.50
2022-09-26T14:38:53.563Z,14.60
2022-09-26T14:41:22.024Z,14.60
2022-09-26T14:43:52.078Z,14.50
2022-09-26T14:46:23.253Z,14.50
2022-09-26T14:48:56.546Z,14.40
2022-09-26T14:51:26.951Z,14.40
2022-09-26T14:53:57.115Z,14.40
2022-09-26T14:56:32.460Z,14.40
2022-09-26T15:02:10.860Z,14.40
2022-09-26T15:04:39.079Z,14.30
2022-09-26T15:07:15.155Z,14.40
2022-09-26T15:09:44.587Z,14.50
2022-09-26T15:12:16.966Z,14.50
2022-09-26T15:14:46.034Z,14.50
2022-09-26T15:17:17.524Z,14.50
2022-09-26T15:19:49.052Z,14.50
2022-09-26T15:22:19.240Z,14.40
2022-09-26T15:24:47.091Z,14.40
2022-09-26T15:27:19.115Z,14.30
2022-09-26T15:29:47.763Z,14.30
2022-09-26T15:32:20.492Z,14.20
2022-09-26T15:34:48.363Z,14.20
2022-09-26T15:37:18.365Z,14.20
2022-09-26T15:39:46.054Z,14.30
2022-09-26T15:42:39.667Z,14.20
2022-09-26T15:45:23.176Z,14.20
2022-09-26T15:47:52.281Z,14.10
2022-09-26T15:50:22.526Z,14.10
2022-09-26T15:52:52.722Z,14.00
2022-09-26T15:55:21.596Z,14.00
2022-09-26T15:57:50.957Z,14.00
2022-09-26T16:00:19.028Z,14.00
2022-09-26T16:02:47.243Z,14.00
2022-09-26T16:05:16.537Z,13.90
2022-09-26T16:07:48.631Z,13.90
2022-09-26T16:10:25.168Z,13.90
2022-09-26T16:12:53.308Z,13.90
2022-09-26T16:15:28.667Z,13.80
2022-09-26T16:17:57.495Z,13.80
2022-09-26T16:20:28.576Z,13.80
2022-09-26T16:23:00.333Z,13.80
2022-09-26T16:25:32.086Z,13.70
2022-09-26T16:28:02.924Z,13.70
2022-09-26T16:30:41.576Z,13.70
2022-09-26T16:33:22.416Z,13.70
2022-09-26T16:35:51.668Z,13.60
2022-09-26T16:38:22.864Z,13.60
2022-09-26T16:40:51.064Z,13.50
2022-09-26T16:43:24.011Z,13.50
2022-09-26T16:45:54.282Z,13.50
2022-09-26T16:48:39.903Z,13.50
2022-09-26T16:51:17.328Z,13.40
2022-09-26T16:53:45.838Z,13.40
2022-09-26T16:56:14.860Z,13.30
2022-09-26T16:58:45.315Z,13.20
2022-09-26T17:01:30.783Z,13.10
2022-09-26T17:03:59.402Z,13.00
2022-09-26T17:06:28.644Z,13.00
2022-09-26T17:08:57.459Z,12.90
2022-09-26T17:11:26.264Z,12.80
2022-09-26T17:13:53.918Z,12.80
2022-09-26T17:16:21.926Z,12.80
2022-09-26T17:18:49.691Z,12.70
2022-09-26T17:21:17.556Z,12.70
2022-09-26T17:23:48.784Z,12.70
2022-09-26T17:26:19.510Z,12.70
2022-09-26T17:28:47.283Z,12.60
2022-09-26T17:31:19.597Z,12.70
2022-09-26T17:33:49.230Z,12.60
2022-09-26T17:36:20.706Z,12.60
2022-09-26T17:38:49.907Z,12.60
2022-09-26T17:41:17.570Z,12.60
2022-09-26T17:43:45.282Z,12.60
2022-09-26T17:46:15.617Z,12.60
2022-09-26T17:48:44.480Z,12.60
2022-09-26T17:51:13.839Z,12.60
2022-09-26T17:53:49.502Z,12.50
2022-09-26T17:56:19.592Z,12.50
2022-09-26T17:58:48.005Z,12.50
2022-09-26T18:01:20.991Z,12.50
2022-09-26T18:03:49.686Z,12.40
2022-09-26T18:06:18.845Z,12.40
2022-09-26T18:08:46.761Z,12.40
2022-09-26T18:11:15.899Z,12.40
2022-09-26T18:13:47.728Z,12.40
2022-09-26T18:16:15.958Z,12.30
2022-09-26T18:18:44.033Z,12.30
2022-09-26T18:21:16.357Z,12.30
2022-09-26T18:23:45.866Z,12.30
2022-09-26T18:26:15.489Z,12.30
2022-09-26T18:28:43.180Z,12.30
2022-09-26T18:31:12.356Z,12.20
2022-09-26T18:33:40.021Z,12.20
2022-09-26T18:36:10.179Z,12.20
2022-09-26T18:38:37.827Z,12.10
2022-09-26T18:41:07.000Z,12.00
2022-09-26T18:43:39.138Z,11.90
2022-09-26T18:46:10.020Z,11.80
2022-09-26T18:48:39.084Z,11.80
2022-09-26T18:51:06.883Z,11.80
2022-09-26T18:53:37.190Z,11.70
2022-09-26T18:56:22.975Z,11.70
2022-09-26T18:58:50.670Z,11.70
2022-09-26T19:01:22.935Z,11.60
2022-09-26T19:03:52.167Z,11.60
2022-09-26T19:06:23.096Z,11.60
2022-09-26T19:08:51.678Z,11.60
2022-09-26T19:11:20.565Z,11.50
2022-09-26T19:13:49.080Z,11.50
2022-09-26T19:16:16.940Z,11.50
2022-09-26T19:18:45.074Z,11.50
2022-09-26T19:21:17.904Z,11.40
2022-09-26T19:23:45.889Z,11.50
2022-09-26T19:26:18.612Z,11.40
2022-09-26T19:28:46.250Z,11.40
2022-09-26T19:31:13.966Z,11.40
2022-09-26T19:33:44.461Z,11.40
2022-09-26T19:36:14.825Z,11.40
2022-09-26T19:38:44.022Z,11.40
2022-09-26T19:41:11.937Z,11.40
2022-09-26T19:43:39.658Z,11.30
2022-09-26T19:46:11.697Z,11.30
2022-09-26T19:48:41.325Z,11.30
2022-09-26T19:51:10.818Z,11.30
2022-09-26T19:53:38.786Z,11.20
2022-09-26T19:56:08.057Z,11.20
2022-09-26T19:58:35.721Z,11.20
2022-09-26T20:01:11.575Z,11.10
2022-09-26T20:03:41.728Z,11.20
2022-09-26T20:06:13.297Z,11.10
2022-09-26T20:08:41.036Z,11.10
2022-09-26T20:11:10.231Z,11.10
2022-09-26T20:13:51.900Z,11.10
2022-09-26T20:16:19.781Z,11.10
2022-09-26T20:18:48.674Z,11.20
2022-09-26T20:21:17.868Z,11.20
2022-09-26T20:23:45.990Z,11.10
2022-09-26T20:26:17.135Z,11.10
2022-09-26T20:28:44.801Z,11.20
2022-09-26T20:31:18.336Z,11.10
2022-09-26T20:33:46.122Z,11.00
2022-09-26T20:36:13.859Z,11.00
2022-09-26T20:38:43.368Z,11.00
2022-09-26T20:41:15.093Z,11.00
2022-09-26T20:43:45.178Z,11.00
2022-09-26T20:46:13.436Z,11.00
2022-09-26T20:48:42.688Z,11.10
2022-09-26T20:51:16.095Z,11.10
2022-09-26T20:53:43.867Z,11.10
2022-09-26T20:56:13.915Z,11.10
2022-09-26T20:58:42.156Z,11.10
2022-09-26T21:01:13.600Z,11.10
2022-09-26T21:03:44.410Z,11.00
2022-09-26T21:06:16.209Z,11.00
2022-09-26T21:08:44.375Z,11.00
2022-09-26T21:11:13.720Z,10.90
2022-09-26T21:13:41.832Z,10.90
2022-09-26T21:16:13.484Z,10.90
2022-09-26T21:18:41.560Z,10.90
2022-09-26T21:21:14.354Z,11.00
2022-09-26T21:23:43.333Z,11.00
2022-09-26T21:26:15.180Z,11.00
2022-09-26T21:28:42.826Z,11.10
2022-09-26T21:31:11.735Z,11.00
2022-09-26T21:33:40.866Z,11.00
2022-09-26T21:36:09.398Z,11.00
2022-09-26T21:38:37.038Z,11.10
2022-09-26T21:41:04.888Z,11.10
2022-09-26T21:43:36.863Z,11.10
2022-09-26T21:46:04.561Z,11.10
2022-09-26T21:48:33.564Z,11.00
2022-09-26T21:51:03.311Z,11.00
2022-09-26T21:53:33.291Z,11.00
2022-09-26T21:56:07.375Z,11.00
2022-09-26T21:58:37.092Z,11.00
2022-09-26T22:01:04.830Z,11.10
2022-09-26T22:03:33.005Z,11.10
2022-09-26T22:06:07.018Z,11.10
2022-09-26T22:08:35.096Z,11.10
2022-09-26T22:11:03.411Z,11.00
2022-09-26T22:13:32.571Z,11.00
2022-09-26T22:16:04.785Z,11.00
2022-09-26T22:18:33.298Z,11.00
2022-09-26T22:21:04.676Z,10.90
2022-09-26T22:23:32.362Z,10.90
2022-09-26T22:26:00.159Z,10.90
2022-09-26T22:28:27.861Z,10.90
2022-09-26T22:30:55.810Z,10.80
2022-09-26T22:33:23.867Z,10.90
2022-09-26T22:35:51.666Z,10.90
2022-09-26T22:38:20.659Z,10.90
2022-09-26T22:40:55.820Z,10.90
2022-09-26T22:43:23.698Z,10.90
2022-09-26T22:45:51.386Z,10.90
2022-09-26T22:48:19.212Z,10.90
2022-09-26T22:50:46.972Z,10.90
2022-09-26T22:53:14.624Z,11.00
2022-09-26T22:55:52.180Z,11.00
2022-09-26T22:58:19.968Z,10.90
2022-09-26T23:00:47.934Z,10.90
2022-09-26T23:03:15.693Z,11.00
2022-09-26T23:05:43.359Z,11.00
2022-09-26T23:08:11.032Z,11.00
2022-09-26T23:10:38.896Z,11.00
2022-09-26T23:13:07.903Z,11.10
2022-09-26T23:15:35.540Z,11.10
2022-09-26T23:18:03.239Z,11.10
2022-09-26T23:20:30.889Z,11.10
2022-09-26T23:22:58.555Z,11.10
2022-09-26T23:25:26.235Z,11.20
2022-09-26T23:27:53.882Z,11.20
2022-09-26T23:30:23.097Z,11.20
2022-09-26T23:32:50.998Z,11.10
2022-09-26T23:35:18.849Z,11.10
2022-09-26T23:37:46.491Z,11.00
2022-09-26T23:40:14.247Z,11.00
2022-09-26T23:42:41.923Z,11.00
2022-09-26T23:45:10.112Z,11.00
2022-09-26T23:47:39.150Z,11.00
2022-09-26T23:50:07.925Z,11.10
2022-09-26T23:52:35.587Z,11.20
2022-09-26T23:55:03.290Z,11.20
2022-09-26T23:57:30.930Z,11.10
2022-09-26T23:59:58.771Z,11.00
